Terminal Aerodrome Forecast
Issued by NWS

Home | Current Version | Previous Version | Text Only | Print | Product List | Glossary On
Versions: 1 2 3 4 5 6 7 8 9 10 11 12 13 14 15
023
FTUS44 KLIX 241858 AAA
TAFMCB
TAF AMD
KMCB 241858Z 2419/2518 34012G22KT P6SM SKC
     FM242300 33006KT P6SM SKC
     FM250200 00000KT P6SM SKC
     FM251500 21006KT P6SM SKC=

USA.gov is the U.S. government's official web portal to all federal, state and local government web resources and services.